sensor_id;sensor_type;location;lat;lon;timestamp;P1;durP1;ratioP1;P2;durP2;ratioP2
19341;SDS011;9807;48.258;12.690;2023-02-28T00:00:17;6.73;;;4.10;;
19341;SDS011;9807;48.258;12.690;2023-02-28T00:02:43;7.33;;;3.97;;
19341;SDS011;9807;48.258;12.690;2023-02-28T00:05:10;7.00;;;4.03;;
19341;SDS011;9807;48.258;12.690;2023-02-28T00:07:37;5.87;;;3.60;;
19341;SDS011;9807;48.258;12.690;2023-02-28T00:10:07;9.63;;;4.27;;
19341;SDS011;9807;48.258;12.690;2023-02-28T00:12:36;7.20;;;4.17;;
19341;SDS011;9807;48.258;12.690;2023-02-28T00:15:05;7.10;;;3.97;;
19341;SDS011;9807;48.258;12.690;2023-02-28T00:17:33;6.73;;;3.90;;
19341;SDS011;9807;48.258;12.690;2023-02-28T00:19:59;7.03;;;3.80;;
19341;SDS011;9807;48.258;12.690;2023-02-28T00:22:37;7.80;;;4.57;;
19341;SDS011;9807;48.258;12.690;2023-02-28T00:25:07;7.80;;;4.30;;
19341;SDS011;9807;48.258;12.690;2023-02-28T00:27:37;7.03;;;4.10;;
19341;SDS011;9807;48.258;12.690;2023-02-28T00:30:13;8.17;;;4.17;;
19341;SDS011;9807;48.258;12.690;2023-02-28T00:32:46;7.70;;;4.37;;
19341;SDS011;9807;48.258;12.690;2023-02-28T00:35:12;7.00;;;4.20;;
19341;SDS011;9807;48.258;12.690;2023-02-28T00:37:38;8.53;;;4.60;;
19341;SDS011;9807;48.258;12.690;2023-02-28T00:40:04;5.97;;;3.90;;
19341;SDS011;9807;48.258;12.690;2023-02-28T00:42:31;6.93;;;4.43;;
19341;SDS011;9807;48.258;12.690;2023-02-28T00:44:58;6.83;;;4.60;;
19341;SDS011;9807;48.258;12.690;2023-02-28T00:47:23;7.93;;;4.53;;
19341;SDS011;9807;48.258;12.690;2023-02-28T00:49:49;7.40;;;4.53;;
19341;SDS011;9807;48.258;12.690;2023-02-28T00:52:15;6.67;;;4.30;;
19341;SDS011;9807;48.258;12.690;2023-02-28T00:54:41;8.77;;;4.50;;
19341;SDS011;9807;48.258;12.690;2023-02-28T00:57:07;6.77;;;4.63;;
19341;SDS011;9807;48.258;12.690;2023-02-28T00:59:33;7.97;;;4.80;;
19341;SDS011;9807;48.258;12.690;2023-02-28T01:01:58;8.60;;;4.70;;
19341;SDS011;9807;48.258;12.690;2023-02-28T01:04:24;8.37;;;4.83;;
19341;SDS011;9807;48.258;12.690;2023-02-28T01:06:50;8.13;;;4.90;;
19341;SDS011;9807;48.258;12.690;2023-02-28T01:09:20;8.57;;;5.10;;
19341;SDS011;9807;48.258;12.690;2023-02-28T01:11:46;8.37;;;4.83;;
19341;SDS011;9807;48.258;12.690;2023-02-28T01:14:17;10.33;;;5.43;;
19341;SDS011;9807;48.258;12.690;2023-02-28T01:16:43;9.17;;;5.30;;
19341;SDS011;9807;48.258;12.690;2023-02-28T01:19:09;8.20;;;5.20;;
19341;SDS011;9807;48.258;12.690;2023-02-28T01:21:38;8.67;;;5.07;;
19341;SDS011;9807;48.258;12.690;2023-02-28T01:24:04;10.53;;;6.30;;
19341;SDS011;9807;48.258;12.690;2023-02-28T01:26:31;8.70;;;5.53;;
19341;SDS011;9807;48.258;12.690;2023-02-28T01:28:57;7.93;;;4.80;;
19341;SDS011;9807;48.258;12.690;2023-02-28T01:31:23;10.23;;;5.60;;
19341;SDS011;9807;48.258;12.690;2023-02-28T01:33:49;11.83;;;5.57;;
19341;SDS011;9807;48.258;12.690;2023-02-28T01:36:19;8.63;;;5.33;;
19341;SDS011;9807;48.258;12.690;2023-02-28T01:38:47;9.07;;;5.50;;
19341;SDS011;9807;48.258;12.690;2023-02-28T01:41:15;8.77;;;5.63;;
19341;SDS011;9807;48.258;12.690;2023-02-28T01:46:14;10.50;;;5.77;;
19341;SDS011;9807;48.258;12.690;2023-02-28T01:48:54;10.93;;;5.97;;
19341;SDS011;9807;48.258;12.690;2023-02-28T01:51:31;9.93;;;6.30;;
19341;SDS011;9807;48.258;12.690;2023-02-28T01:54:12;10.17;;;6.00;;
19341;SDS011;9807;48.258;12.690;2023-02-28T01:57:04;11.03;;;6.77;;
19341;SDS011;9807;48.258;12.690;2023-02-28T01:59:41;10.67;;;5.80;;
19341;SDS011;9807;48.258;12.690;2023-02-28T02:02:20;10.00;;;6.20;;
19341;SDS011;9807;48.258;12.690;2023-02-28T02:04:55;11.13;;;6.37;;
19341;SDS011;9807;48.258;12.690;2023-02-28T02:07:26;9.83;;;5.63;;
19341;SDS011;9807;48.258;12.690;2023-02-28T02:10:01;8.93;;;6.00;;
19341;SDS011;9807;48.258;12.690;2023-02-28T02:17:51;10.80;;;5.97;;
19341;SDS011;9807;48.258;12.690;2023-02-28T02:20:32;12.33;;;6.47;;
19341;SDS011;9807;48.258;12.690;2023-02-28T02:26:07;9.70;;;6.77;;
19341;SDS011;9807;48.258;12.690;2023-02-28T02:31:18;11.33;;;6.83;;
19341;SDS011;9807;48.258;12.690;2023-02-28T02:39:24;11.83;;;7.03;;
19341;SDS011;9807;48.258;12.690;2023-02-28T02:42:05;12.37;;;6.90;;
19341;SDS011;9807;48.258;12.690;2023-02-28T02:44:42;10.53;;;6.93;;
19341;SDS011;9807;48.258;12.690;2023-02-28T02:47:14;12.70;;;6.93;;
19341;SDS011;9807;48.258;12.690;2023-02-28T02:49:46;11.20;;;6.30;;
19341;SDS011;9807;48.258;12.690;2023-02-28T02:52:18;10.80;;;6.93;;
19341;SDS011;9807;48.258;12.690;2023-02-28T02:54:48;12.20;;;7.30;;
19341;SDS011;9807;48.258;12.690;2023-02-28T02:57:29;12.83;;;7.57;;
19341;SDS011;9807;48.258;12.690;2023-02-28T03:00:16;10.53;;;7.40;;
19341;SDS011;9807;48.258;12.690;2023-02-28T03:02:45;12.27;;;7.37;;
19341;SDS011;9807;48.258;12.690;2023-02-28T03:08:17;12.20;;;7.90;;
19341;SDS011;9807;48.258;12.690;2023-02-28T03:10:49;12.40;;;8.00;;
19341;SDS011;9807;48.258;12.690;2023-02-28T03:18:56;17.07;;;9.03;;
19341;SDS011;9807;48.258;12.690;2023-02-28T03:24:32;14.97;;;8.50;;
19341;SDS011;9807;48.258;12.690;2023-02-28T03:27:11;15.17;;;9.00;;
19341;SDS011;9807;48.258;12.690;2023-02-28T03:30:02;16.80;;;8.83;;
19341;SDS011;9807;48.258;12.690;2023-02-28T03:35:21;15.43;;;9.27;;
19341;SDS011;9807;48.258;12.690;2023-02-28T03:37:59;19.33;;;9.00;;
19341;SDS011;9807;48.258;12.690;2023-02-28T03:40:50;16.63;;;9.27;;
19341;SDS011;9807;48.258;12.690;2023-02-28T03:43:26;15.97;;;8.83;;
19341;SDS011;9807;48.258;12.690;2023-02-28T03:45:57;17.43;;;10.03;;
19341;SDS011;9807;48.258;12.690;2023-02-28T03:48:31;15.03;;;9.40;;
19341;SDS011;9807;48.258;12.690;2023-02-28T03:51:10;17.00;;;9.57;;
19341;SDS011;9807;48.258;12.690;2023-02-28T03:54:05;18.20;;;10.40;;
19341;SDS011;9807;48.258;12.690;2023-02-28T03:56:33;19.83;;;10.50;;
19341;SDS011;9807;48.258;12.690;2023-02-28T03:59:13;19.53;;;10.57;;
19341;SDS011;9807;48.258;12.690;2023-02-28T04:02:06;16.77;;;10.13;;
19341;SDS011;9807;48.258;12.690;2023-02-28T04:04:43;19.93;;;9.97;;
19341;SDS011;9807;48.258;12.690;2023-02-28T04:07:13;17.43;;;10.23;;
19341;SDS011;9807;48.258;12.690;2023-02-28T04:09:40;16.37;;;10.10;;
19341;SDS011;9807;48.258;12.690;2023-02-28T04:12:06;19.03;;;11.07;;
19341;SDS011;9807;48.258;12.690;2023-02-28T04:14:32;18.53;;;10.17;;
19341;SDS011;9807;48.258;12.690;2023-02-28T04:17:00;19.87;;;10.77;;
19341;SDS011;9807;48.258;12.690;2023-02-28T04:19:26;19.50;;;10.53;;
19341;SDS011;9807;48.258;12.690;2023-02-28T04:21:52;19.47;;;10.43;;
19341;SDS011;9807;48.258;12.690;2023-02-28T04:24:25;18.87;;;10.27;;
19341;SDS011;9807;48.258;12.690;2023-02-28T04:26:53;16.20;;;10.37;;
19341;SDS011;9807;48.258;12.690;2023-02-28T04:29:22;19.07;;;11.57;;
19341;SDS011;9807;48.258;12.690;2023-02-28T04:31:52;15.53;;;9.60;;
19341;SDS011;9807;48.258;12.690;2023-02-28T04:34:19;18.03;;;10.27;;
19341;SDS011;9807;48.258;12.690;2023-02-28T04:36:46;18.67;;;10.10;;
19341;SDS011;9807;48.258;12.690;2023-02-28T04:39:18;17.63;;;10.27;;
19341;SDS011;9807;48.258;12.690;2023-02-28T04:41:45;17.83;;;10.20;;
19341;SDS011;9807;48.258;12.690;2023-02-28T04:44:13;17.70;;;10.33;;
19341;SDS011;9807;48.258;12.690;2023-02-28T04:46:40;19.87;;;10.50;;
19341;SDS011;9807;48.258;12.690;2023-02-28T04:49:06;17.50;;;10.33;;
19341;SDS011;9807;48.258;12.690;2023-02-28T04:51:35;19.27;;;9.93;;
19341;SDS011;9807;48.258;12.690;2023-02-28T04:54:01;17.67;;;9.80;;
19341;SDS011;9807;48.258;12.690;2023-02-28T04:56:27;16.57;;;9.93;;
19341;SDS011;9807;48.258;12.690;2023-02-28T04:58:58;16.70;;;9.90;;
19341;SDS011;9807;48.258;12.690;2023-02-28T05:01:28;18.23;;;9.83;;
19341;SDS011;9807;48.258;12.690;2023-02-28T05:03:59;17.97;;;10.57;;
19341;SDS011;9807;48.258;12.690;2023-02-28T05:06:30;19.83;;;10.30;;
19341;SDS011;9807;48.258;12.690;2023-02-28T05:08:57;16.97;;;9.80;;
19341;SDS011;9807;48.258;12.690;2023-02-28T05:11:27;17.13;;;10.37;;
19341;SDS011;9807;48.258;12.690;2023-02-28T05:14:03;16.10;;;10.40;;
19341;SDS011;9807;48.258;12.690;2023-02-28T05:16:38;16.73;;;9.40;;
19341;SDS011;9807;48.258;12.690;2023-02-28T05:19:04;16.00;;;9.57;;
19341;SDS011;9807;48.258;12.690;2023-02-28T05:21:31;19.57;;;10.90;;
19341;SDS011;9807;48.258;12.690;2023-02-28T05:24:03;15.33;;;9.80;;
19341;SDS011;9807;48.258;12.690;2023-02-28T05:26:33;18.87;;;10.17;;
19341;SDS011;9807;48.258;12.690;2023-02-28T05:29:03;18.33;;;9.90;;
19341;SDS011;9807;48.258;12.690;2023-02-28T05:31:30;19.17;;;10.30;;
19341;SDS011;9807;48.258;12.690;2023-02-28T05:33:58;20.30;;;10.47;;
19341;SDS011;9807;48.258;12.690;2023-02-28T05:36:24;16.43;;;10.00;;
19341;SDS011;9807;48.258;12.690;2023-02-28T05:38:53;16.33;;;9.63;;
19341;SDS011;9807;48.258;12.690;2023-02-28T05:41:19;16.13;;;9.50;;
19341;SDS011;9807;48.258;12.690;2023-02-28T05:43:48;16.07;;;9.23;;
19341;SDS011;9807;48.258;12.690;2023-02-28T05:46:16;18.60;;;9.53;;
19341;SDS011;9807;48.258;12.690;2023-02-28T05:48:46;17.77;;;9.90;;
19341;SDS011;9807;48.258;12.690;2023-02-28T05:51:13;16.73;;;9.37;;
19341;SDS011;9807;48.258;12.690;2023-02-28T05:53:38;16.90;;;10.43;;
19341;SDS011;9807;48.258;12.690;2023-02-28T05:56:05;18.00;;;10.13;;
19341;SDS011;9807;48.258;12.690;2023-02-28T05:58:33;15.73;;;9.83;;
19341;SDS011;9807;48.258;12.690;2023-02-28T06:03:58;21.23;;;10.30;;
19341;SDS011;9807;48.258;12.690;2023-02-28T06:06:30;17.03;;;9.70;;
19341;SDS011;9807;48.258;12.690;2023-02-28T06:08:56;16.43;;;9.23;;
19341;SDS011;9807;48.258;12.690;2023-02-28T06:11:22;15.87;;;9.43;;
19341;SDS011;9807;48.258;12.690;2023-02-28T06:14:01;16.03;;;9.77;;
19341;SDS011;9807;48.258;12.690;2023-02-28T06:16:30;17.40;;;9.60;;
19341;SDS011;9807;48.258;12.690;2023-02-28T06:18:58;24.03;;;10.57;;
19341;SDS011;9807;48.258;12.690;2023-02-28T06:21:28;17.70;;;9.40;;
19341;SDS011;9807;48.258;12.690;2023-02-28T06:23:54;19.30;;;9.80;;
19341;SDS011;9807;48.258;12.690;2023-02-28T06:26:21;18.00;;;10.23;;
19341;SDS011;9807;48.258;12.690;2023-02-28T06:28:49;18.47;;;10.10;;
19341;SDS011;9807;48.258;12.690;2023-02-28T06:31:16;17.30;;;9.83;;
19341;SDS011;9807;48.258;12.690;2023-02-28T06:33:43;12.77;;;8.47;;
19341;SDS011;9807;48.258;12.690;2023-02-28T06:36:10;16.83;;;9.80;;
19341;SDS011;9807;48.258;12.690;2023-02-28T06:38:37;15.60;;;9.33;;
19341;SDS011;9807;48.258;12.690;2023-02-28T06:41:06;20.07;;;10.50;;
19341;SDS011;9807;48.258;12.690;2023-02-28T06:43:34;18.73;;;10.10;;
19341;SDS011;9807;48.258;12.690;2023-02-28T06:46:03;17.67;;;9.03;;
19341;SDS011;9807;48.258;12.690;2023-02-28T06:48:31;16.47;;;9.30;;
19341;SDS011;9807;48.258;12.690;2023-02-28T06:51:07;16.80;;;9.43;;
19341;SDS011;9807;48.258;12.690;2023-02-28T06:53:41;16.07;;;9.27;;
19341;SDS011;9807;48.258;12.690;2023-02-28T06:56:08;14.40;;;9.07;;
19341;SDS011;9807;48.258;12.690;2023-02-28T06:58:36;14.93;;;8.70;;
19341;SDS011;9807;48.258;12.690;2023-02-28T07:01:04;14.53;;;8.83;;
19341;SDS011;9807;48.258;12.690;2023-02-28T07:03:34;16.83;;;9.33;;
19341;SDS011;9807;48.258;12.690;2023-02-28T07:06:01;15.23;;;8.63;;
19341;SDS011;9807;48.258;12.690;2023-02-28T07:08:30;15.30;;;9.30;;
19341;SDS011;9807;48.258;12.690;2023-02-28T07:10:56;15.97;;;9.40;;
19341;SDS011;9807;48.258;12.690;2023-02-28T07:13:23;17.15;;;10.70;;
19341;SDS011;9807;48.258;12.690;2023-02-28T07:15:53;17.23;;;9.57;;
19341;SDS011;9807;48.258;12.690;2023-02-28T07:18:19;20.30;;;10.13;;
19341;SDS011;9807;48.258;12.690;2023-02-28T07:20:45;17.17;;;9.57;;
19341;SDS011;9807;48.258;12.690;2023-02-28T07:23:11;15.70;;;9.13;;
19341;SDS011;9807;48.258;12.690;2023-02-28T07:25:40;15.77;;;9.67;;
19341;SDS011;9807;48.258;12.690;2023-02-28T07:28:05;18.10;;;9.47;;
19341;SDS011;9807;48.258;12.690;2023-02-28T07:30:31;17.60;;;10.70;;
19341;SDS011;9807;48.258;12.690;2023-02-28T07:32:57;15.60;;;9.50;;
19341;SDS011;9807;48.258;12.690;2023-02-28T07:35:23;18.03;;;10.07;;
19341;SDS011;9807;48.258;12.690;2023-02-28T07:37:49;18.60;;;9.97;;
19341;SDS011;9807;48.258;12.690;2023-02-28T07:40:15;19.17;;;10.20;;
19341;SDS011;9807;48.258;12.690;2023-02-28T07:42:43;20.07;;;9.90;;
19341;SDS011;9807;48.258;12.690;2023-02-28T07:45:10;17.67;;;10.47;;
19341;SDS011;9807;48.258;12.690;2023-02-28T07:47:37;16.60;;;10.30;;
19341;SDS011;9807;48.258;12.690;2023-02-28T07:50:04;18.87;;;10.30;;
19341;SDS011;9807;48.258;12.690;2023-02-28T07:52:31;18.43;;;10.97;;
19341;SDS011;9807;48.258;12.690;2023-02-28T07:54:57;17.93;;;10.10;;
19341;SDS011;9807;48.258;12.690;2023-02-28T07:57:23;19.10;;;10.20;;
19341;SDS011;9807;48.258;12.690;2023-02-28T07:59:52;26.10;;;10.63;;
19341;SDS011;9807;48.258;12.690;2023-02-28T08:02:28;17.93;;;10.73;;
19341;SDS011;9807;48.258;12.690;2023-02-28T08:04:54;19.87;;;10.80;;
19341;SDS011;9807;48.258;12.690;2023-02-28T08:07:27;17.97;;;10.57;;
19341;SDS011;9807;48.258;12.690;2023-02-28T08:09:52;16.93;;;10.07;;
19341;SDS011;9807;48.258;12.690;2023-02-28T08:12:18;17.80;;;10.00;;
19341;SDS011;9807;48.258;12.690;2023-02-28T08:14:44;19.00;;;10.73;;
19341;SDS011;9807;48.258;12.690;2023-02-28T08:17:16;17.03;;;9.77;;
19341;SDS011;9807;48.258;12.690;2023-02-28T08:19:42;15.67;;;9.17;;
19341;SDS011;9807;48.258;12.690;2023-02-28T08:22:11;17.23;;;10.17;;
19341;SDS011;9807;48.258;12.690;2023-02-28T08:24:36;20.97;;;10.30;;
19341;SDS011;9807;48.258;12.690;2023-02-28T08:27:06;18.90;;;10.23;;
19341;SDS011;9807;48.258;12.690;2023-02-28T08:29:32;17.67;;;9.97;;
19341;SDS011;9807;48.258;12.690;2023-02-28T08:31:58;20.33;;;10.77;;
19341;SDS011;9807;48.258;12.690;2023-02-28T08:34:23;17.70;;;9.57;;
19341;SDS011;9807;48.258;12.690;2023-02-28T08:36:49;18.13;;;10.10;;
19341;SDS011;9807;48.258;12.690;2023-02-28T08:39:15;16.27;;;9.93;;
19341;SDS011;9807;48.258;12.690;2023-02-28T08:41:42;16.50;;;10.20;;
19341;SDS011;9807;48.258;12.690;2023-02-28T08:44:07;16.20;;;9.67;;
19341;SDS011;9807;48.258;12.690;2023-02-28T08:46:33;19.07;;;10.33;;
19341;SDS011;9807;48.258;12.690;2023-02-28T08:49:06;19.57;;;11.03;;
19341;SDS011;9807;48.258;12.690;2023-02-28T08:51:32;19.63;;;10.33;;
19341;SDS011;9807;48.258;12.690;2023-02-28T08:54:01;15.80;;;9.93;;
19341;SDS011;9807;48.258;12.690;2023-02-28T08:56:27;18.57;;;10.53;;
19341;SDS011;9807;48.258;12.690;2023-02-28T08:58:54;20.23;;;10.47;;
19341;SDS011;9807;48.258;12.690;2023-02-28T09:01:22;20.70;;;10.00;;
19341;SDS011;9807;48.258;12.690;2023-02-28T09:03:54;15.90;;;9.97;;
19341;SDS011;9807;48.258;12.690;2023-02-28T09:06:22;17.27;;;9.80;;
19341;SDS011;9807;48.258;12.690;2023-02-28T09:08:49;16.07;;;10.07;;
19341;SDS011;9807;48.258;12.690;2023-02-28T09:11:15;15.93;;;9.93;;
19341;SDS011;9807;48.258;12.690;2023-02-28T09:13:41;18.23;;;10.00;;
19341;SDS011;9807;48.258;12.690;2023-02-28T09:16:10;19.63;;;9.87;;
19341;SDS011;9807;48.258;12.690;2023-02-28T09:18:37;15.90;;;10.03;;
19341;SDS011;9807;48.258;12.690;2023-02-28T09:21:05;16.83;;;10.30;;
19341;SDS011;9807;48.258;12.690;2023-02-28T09:23:35;20.07;;;10.47;;
19341;SDS011;9807;48.258;12.690;2023-02-28T09:26:03;17.93;;;10.70;;
19341;SDS011;9807;48.258;12.690;2023-02-28T09:28:30;18.07;;;10.17;;
19341;SDS011;9807;48.258;12.690;2023-02-28T09:30:55;16.63;;;10.43;;
19341;SDS011;9807;48.258;12.690;2023-02-28T09:33:24;19.60;;;10.90;;
19341;SDS011;9807;48.258;12.690;2023-02-28T09:35:50;18.00;;;10.10;;
19341;SDS011;9807;48.258;12.690;2023-02-28T09:38:22;18.53;;;9.77;;
19341;SDS011;9807;48.258;12.690;2023-02-28T09:41:01;18.23;;;10.03;;
19341;SDS011;9807;48.258;12.690;2023-02-28T09:43:35;18.13;;;10.13;;
19341;SDS011;9807;48.258;12.690;2023-02-28T09:46:08;17.60;;;9.60;;
19341;SDS011;9807;48.258;12.690;2023-02-28T09:48:41;16.07;;;9.87;;
19341;SDS011;9807;48.258;12.690;2023-02-28T09:54:00;17.17;;;9.67;;
19341;SDS011;9807;48.258;12.690;2023-02-28T09:56:42;17.47;;;10.20;;
19341;SDS011;9807;48.258;12.690;2023-02-28T10:07:10;16.80;;;9.37;;
19341;SDS011;9807;48.258;12.690;2023-02-28T10:09:53;16.07;;;9.50;;
19341;SDS011;9807;48.258;12.690;2023-02-28T10:12:22;17.47;;;10.10;;
19341;SDS011;9807;48.258;12.690;2023-02-28T10:14:50;17.43;;;9.97;;
19341;SDS011;9807;48.258;12.690;2023-02-28T10:17:22;16.77;;;9.83;;
19341;SDS011;9807;48.258;12.690;2023-02-28T10:22:52;16.43;;;10.00;;
19341;SDS011;9807;48.258;12.690;2023-02-28T10:25:23;18.37;;;11.10;;
19341;SDS011;9807;48.258;12.690;2023-02-28T10:28:00;21.53;;;10.63;;
19341;SDS011;9807;48.258;12.690;2023-02-28T10:30:33;19.93;;;11.57;;
19341;SDS011;9807;48.258;12.690;2023-02-28T10:33:00;17.97;;;10.27;;
19341;SDS011;9807;48.258;12.690;2023-02-28T10:35:26;14.87;;;9.83;;
19341;SDS011;9807;48.258;12.690;2023-02-28T10:37:53;16.10;;;9.13;;
19341;SDS011;9807;48.258;12.690;2023-02-28T10:43:29;16.13;;;10.17;;
19341;SDS011;9807;48.258;12.690;2023-02-28T10:45:39;17.40;;;10.10;;
19341;SDS011;9807;48.258;12.690;2023-02-28T10:56:01;16.97;;;9.87;;
19341;SDS011;9807;48.258;12.690;2023-02-28T10:58:29;16.00;;;9.57;;
19341;SDS011;9807;48.258;12.690;2023-02-28T11:00:57;16.23;;;10.03;;
19341;SDS011;9807;48.258;12.690;2023-02-28T11:03:31;16.40;;;10.20;;
19341;SDS011;9807;48.258;12.690;2023-02-28T11:05:58;21.77;;;9.97;;
19341;SDS011;9807;48.258;12.690;2023-02-28T11:08:31;15.70;;;9.23;;
19341;SDS011;9807;48.258;12.690;2023-02-28T11:10:58;16.23;;;10.07;;
19341;SDS011;9807;48.258;12.690;2023-02-28T11:13:30;15.07;;;9.30;;
19341;SDS011;9807;48.258;12.690;2023-02-28T11:15:59;17.10;;;10.77;;
19341;SDS011;9807;48.258;12.690;2023-02-28T11:18:30;18.47;;;9.50;;
19341;SDS011;9807;48.258;12.690;2023-02-28T11:21:02;17.67;;;10.43;;
19341;SDS011;9807;48.258;12.690;2023-02-28T11:23:32;18.07;;;10.07;;
19341;SDS011;9807;48.258;12.690;2023-02-28T11:26:09;16.80;;;10.47;;
19341;SDS011;9807;48.258;12.690;2023-02-28T11:28:37;16.67;;;9.80;;
19341;SDS011;9807;48.258;12.690;2023-02-28T11:33:42;17.87;;;9.97;;
19341;SDS011;9807;48.258;12.690;2023-02-28T11:38:52;18.13;;;10.47;;
19341;SDS011;9807;48.258;12.690;2023-02-28T11:44:23;17.70;;;10.97;;
19341;SDS011;9807;48.258;12.690;2023-02-28T11:53:05;17.87;;;11.20;;
19341;SDS011;9807;48.258;12.690;2023-02-28T11:56:01;17.50;;;11.00;;
19341;SDS011;9807;48.258;12.690;2023-02-28T11:58:36;16.60;;;10.20;;
19341;SDS011;9807;48.258;12.690;2023-02-28T12:01:20;16.70;;;10.27;;
19341;SDS011;9807;48.258;12.690;2023-02-28T12:18:13;17.43;;;9.67;;
19341;SDS011;9807;48.258;12.690;2023-02-28T12:20:54;17.23;;;10.40;;
19341;SDS011;9807;48.258;12.690;2023-02-28T12:24:00;19.10;;;9.87;;
19341;SDS011;9807;48.258;12.690;2023-02-28T12:26:48;19.27;;;12.30;;
19341;SDS011;9807;48.258;12.690;2023-02-28T12:29:21;16.83;;;10.40;;
19341;SDS011;9807;48.258;12.690;2023-02-28T12:34:21;18.40;;;11.10;;
19341;SDS011;9807;48.258;12.690;2023-02-28T12:36:52;18.37;;;11.40;;
19341;SDS011;9807;48.258;12.690;2023-02-28T12:39:25;16.10;;;10.63;;
19341;SDS011;9807;48.258;12.690;2023-02-28T12:41:59;17.30;;;10.70;;
19341;SDS011;9807;48.258;12.690;2023-02-28T12:44:46;25.57;;;11.83;;
19341;SDS011;9807;48.258;12.690;2023-02-28T12:47:17;15.47;;;10.17;;
19341;SDS011;9807;48.258;12.690;2023-02-28T12:49:57;18.90;;;10.77;;
19341;SDS011;9807;48.258;12.690;2023-02-28T12:53:06;19.93;;;11.57;;
19341;SDS011;9807;48.258;12.690;2023-02-28T12:55:23;16.57;;;10.40;;
19341;SDS011;9807;48.258;12.690;2023-02-28T12:58:05;15.23;;;9.70;;
19341;SDS011;9807;48.258;12.690;2023-02-28T13:00:36;15.00;;;9.83;;
19341;SDS011;9807;48.258;12.690;2023-02-28T13:03:26;17.97;;;10.70;;
19341;SDS011;9807;48.258;12.690;2023-02-28T13:11:31;16.30;;;9.83;;
19341;SDS011;9807;48.258;12.690;2023-02-28T13:14:02;14.43;;;9.33;;
19341;SDS011;9807;48.258;12.690;2023-02-28T13:16:46;18.03;;;10.63;;
19341;SDS011;9807;48.258;12.690;2023-02-28T13:19:28;16.20;;;9.60;;
19341;SDS011;9807;48.258;12.690;2023-02-28T13:21:58;16.87;;;10.70;;
19341;SDS011;9807;48.258;12.690;2023-02-28T13:24:41;17.10;;;9.97;;
19341;SDS011;9807;48.258;12.690;2023-02-28T13:29:42;17.30;;;10.53;;
19341;SDS011;9807;48.258;12.690;2023-02-28T13:34:35;16.73;;;9.93;;
19341;SDS011;9807;48.258;12.690;2023-02-28T13:39:58;21.20;;;11.10;;
19341;SDS011;9807;48.258;12.690;2023-02-28T13:42:48;23.17;;;11.00;;
19341;SDS011;9807;48.258;12.690;2023-02-28T13:45:27;18.50;;;11.10;;
19341;SDS011;9807;48.258;12.690;2023-02-28T13:48:01;16.57;;;10.10;;
19341;SDS011;9807;48.258;12.690;2023-02-28T13:50:30;13.67;;;9.70;;
19341;SDS011;9807;48.258;12.690;2023-02-28T13:53:32;19.97;;;10.50;;
19341;SDS011;9807;48.258;12.690;2023-02-28T13:56:02;15.03;;;10.40;;
19341;SDS011;9807;48.258;12.690;2023-02-28T13:59:03;16.07;;;10.50;;
19341;SDS011;9807;48.258;12.690;2023-02-28T14:01:47;15.60;;;9.83;;
19341;SDS011;9807;48.258;12.690;2023-02-28T14:04:49;18.00;;;11.17;;
19341;SDS011;9807;48.258;12.690;2023-02-28T14:07:30;16.07;;;9.97;;
19341;SDS011;9807;48.258;12.690;2023-02-28T14:10:08;16.87;;;10.87;;
19341;SDS011;9807;48.258;12.690;2023-02-28T14:15:39;16.60;;;10.00;;
19341;SDS011;9807;48.258;12.690;2023-02-28T14:18:29;16.73;;;10.30;;
19341;SDS011;9807;48.258;12.690;2023-02-28T14:26:47;16.27;;;10.23;;
19341;SDS011;9807;48.258;12.690;2023-02-28T14:32:27;13.93;;;9.33;;
19341;SDS011;9807;48.258;12.690;2023-02-28T14:38:28;17.70;;;10.90;;
19341;SDS011;9807;48.258;12.690;2023-02-28T14:41:03;16.63;;;10.50;;
19341;SDS011;9807;48.258;12.690;2023-02-28T14:43:31;17.53;;;10.80;;
19341;SDS011;9807;48.258;12.690;2023-02-28T14:46:06;17.43;;;10.80;;
19341;SDS011;9807;48.258;12.690;2023-02-28T14:48:32;16.23;;;10.33;;
19341;SDS011;9807;48.258;12.690;2023-02-28T14:51:00;15.70;;;10.57;;
19341;SDS011;9807;48.258;12.690;2023-02-28T14:53:30;19.33;;;10.70;;
19341;SDS011;9807;48.258;12.690;2023-02-28T14:56:01;17.30;;;10.67;;
19341;SDS011;9807;48.258;12.690;2023-02-28T14:58:28;19.40;;;10.97;;
19341;SDS011;9807;48.258;12.690;2023-02-28T15:00:57;16.03;;;10.63;;
19341;SDS011;9807;48.258;12.690;2023-02-28T15:03:30;17.20;;;10.23;;
19341;SDS011;9807;48.258;12.690;2023-02-28T15:05:57;17.70;;;11.17;;
19341;SDS011;9807;48.258;12.690;2023-02-28T15:08:24;17.13;;;11.37;;
19341;SDS011;9807;48.258;12.690;2023-02-28T15:10:55;18.23;;;12.00;;
19341;SDS011;9807;48.258;12.690;2023-02-28T15:13:26;16.73;;;10.40;;
19341;SDS011;9807;48.258;12.690;2023-02-28T15:16:13;17.30;;;10.47;;
19341;SDS011;9807;48.258;12.690;2023-02-28T15:18:56;24.20;;;11.77;;
19341;SDS011;9807;48.258;12.690;2023-02-28T15:21:30;17.77;;;12.57;;
19341;SDS011;9807;48.258;12.690;2023-02-28T15:26:32;18.53;;;11.90;;
19341;SDS011;9807;48.258;12.690;2023-02-28T15:29:01;20.03;;;12.23;;
19341;SDS011;9807;48.258;12.690;2023-02-28T15:31:32;19.10;;;11.93;;
19341;SDS011;9807;48.258;12.690;2023-02-28T15:34:13;20.87;;;12.07;;
19341;SDS011;9807;48.258;12.690;2023-02-28T15:36:45;17.67;;;11.70;;
19341;SDS011;9807;48.258;12.690;2023-02-28T15:39:24;20.90;;;11.77;;
19341;SDS011;9807;48.258;12.690;2023-02-28T15:42:09;20.50;;;11.80;;
19341;SDS011;9807;48.258;12.690;2023-02-28T15:44:38;18.57;;;10.93;;
19341;SDS011;9807;48.258;12.690;2023-02-28T15:47:14;18.60;;;11.93;;
19341;SDS011;9807;48.258;12.690;2023-02-28T15:49:54;18.77;;;10.90;;
19341;SDS011;9807;48.258;12.690;2023-02-28T15:55:09;18.47;;;11.77;;
19341;SDS011;9807;48.258;12.690;2023-02-28T15:57:48;18.70;;;11.23;;
19341;SDS011;9807;48.258;12.690;2023-02-28T16:00:19;20.40;;;11.90;;
19341;SDS011;9807;48.258;12.690;2023-02-28T16:02:46;23.13;;;14.13;;
19341;SDS011;9807;48.258;12.690;2023-02-28T16:05:18;22.93;;;13.40;;
19341;SDS011;9807;48.258;12.690;2023-02-28T16:07:45;24.40;;;14.33;;
19341;SDS011;9807;48.258;12.690;2023-02-28T16:10:13;25.47;;;15.07;;
19341;SDS011;9807;48.258;12.690;2023-02-28T16:12:39;25.47;;;14.67;;
19341;SDS011;9807;48.258;12.690;2023-02-28T16:15:14;21.70;;;13.13;;
19341;SDS011;9807;48.258;12.690;2023-02-28T16:17:47;23.17;;;12.97;;
19341;SDS011;9807;48.258;12.690;2023-02-28T16:20:17;26.87;;;14.60;;
19341;SDS011;9807;48.258;12.690;2023-02-28T16:22:43;25.20;;;14.47;;
19341;SDS011;9807;48.258;12.690;2023-02-28T16:25:18;22.70;;;14.60;;
19341;SDS011;9807;48.258;12.690;2023-02-28T16:27:46;25.17;;;15.00;;
19341;SDS011;9807;48.258;12.690;2023-02-28T16:30:25;25.53;;;15.30;;
19341;SDS011;9807;48.258;12.690;2023-02-28T16:32:54;23.63;;;14.40;;
19341;SDS011;9807;48.258;12.690;2023-02-28T16:35:21;25.73;;;15.00;;
19341;SDS011;9807;48.258;12.690;2023-02-28T16:37:47;24.10;;;15.70;;
19341;SDS011;9807;48.258;12.690;2023-02-28T16:40:20;23.93;;;15.00;;
19341;SDS011;9807;48.258;12.690;2023-02-28T16:42:51;25.13;;;15.77;;
19341;SDS011;9807;48.258;12.690;2023-02-28T16:45:22;20.20;;;12.60;;
19341;SDS011;9807;48.258;12.690;2023-02-28T16:47:50;26.20;;;15.43;;
19341;SDS011;9807;48.258;12.690;2023-02-28T16:50:17;23.90;;;13.97;;
19341;SDS011;9807;48.258;12.690;2023-02-28T16:52:45;24.33;;;15.20;;
19341;SDS011;9807;48.258;12.690;2023-02-28T16:55:13;30.23;;;17.23;;
19341;SDS011;9807;48.258;12.690;2023-02-28T16:57:39;27.90;;;16.20;;